createdAt,value
2023-02-27T00:01:04.437Z,18.87
2023-02-27T00:06:07.241Z,18.70
2023-02-27T00:11:09.939Z,23.83
2023-02-27T00:16:13.132Z,20.40
2023-02-27T00:21:15.940Z,23.70
2023-02-27T00:26:18.639Z,22.80
2023-02-27T00:31:21.647Z,19.15
2023-02-27T00:36:27.651Z,22.67
2023-02-27T00:41:30.533Z,18.15
2023-02-27T00:46:33.286Z,22.30
2023-02-27T00:51:36.184Z,20.20
2023-02-27T00:56:39.084Z,19.00
2023-02-27T01:01:41.965Z,20.65
2023-02-27T01:06:44.684Z,26.77
2023-02-27T01:11:47.477Z,20.95
2023-02-27T01:21:54.148Z,20.58
2023-02-27T01:26:56.801Z,22.65
2023-02-27T01:31:59.790Z,21.90
2023-02-27T01:37:03.771Z,20.13
2023-02-27T01:42:13.192Z,16.92
2023-02-27T01:47:15.996Z,25.02
2023-02-27T01:52:18.958Z,20.33
2023-02-27T01:57:21.750Z,21.80
2023-02-27T02:02:30.523Z,18.27
2023-02-27T02:07:34.610Z,20.60
2023-02-27T02:17:58.583Z,20.60
2023-02-27T02:23:07.280Z,18.00
2023-02-27T02:28:36.607Z,18.98
2023-02-27T02:33:55.850Z,17.42
2023-02-27T02:39:40.655Z,19.90
2023-02-27T02:44:49.132Z,20.10
2023-02-27T02:49:58.536Z,15.13
2023-02-27T02:55:12.713Z,17.30
2023-02-27T03:00:19.159Z,17.85
2023-02-27T03:05:39.650Z,15.82
2023-02-27T03:10:51.015Z,17.92
2023-02-27T03:15:53.908Z,17.23
2023-02-27T03:20:59.356Z,14.35
2023-02-27T03:26:03.348Z,22.33
2023-02-27T03:31:18.486Z,18.33
2023-02-27T03:36:27.858Z,14.90
2023-02-27T03:41:38.275Z,17.80
2023-02-27T03:47:01.143Z,20.33
2023-02-27T03:52:04.342Z,13.15
2023-02-27T03:57:08.586Z,12.68
2023-02-27T04:02:11.927Z,13.00
2023-02-27T04:07:24.004Z,16.33
2023-02-27T04:13:02.379Z,14.73
2023-02-27T04:18:21.238Z,12.63
2023-02-27T04:23:31.198Z,13.55
2023-02-27T04:28:44.013Z,12.00
2023-02-27T04:34:02.044Z,14.55
2023-02-27T04:39:09.685Z,11.30
2023-02-27T04:44:45.892Z,13.57
2023-02-27T04:50:19.929Z,12.77
2023-02-27T04:55:32.052Z,12.60
2023-02-27T05:00:42.208Z,13.93
2023-02-27T05:05:49.167Z,10.00
2023-02-27T05:11:14.645Z,11.70
2023-02-27T05:16:17.264Z,13.40
2023-02-27T05:21:25.919Z,12.63
2023-02-27T05:26:44.141Z,11.02
2023-02-27T05:32:03.996Z,11.65
2023-02-27T05:37:20.535Z,11.32
2023-02-27T05:42:29.012Z,11.32
2023-02-27T05:47:33.099Z,12.25
2023-02-27T05:52:36.140Z,11.73
2023-02-27T05:58:10.379Z,12.63
2023-02-27T06:03:16.804Z,10.20
2023-02-27T06:08:20.154Z,10.50
2023-02-27T06:13:24.033Z,10.70
2023-02-27T06:23:30.205Z,10.52
2023-02-27T06:28:32.921Z,11.95
2023-02-27T06:33:35.847Z,9.70
2023-02-27T06:38:38.522Z,12.02
2023-02-27T06:43:41.230Z,11.90
2023-02-27T06:48:44.031Z,11.32
2023-02-27T06:53:49.765Z,9.90
2023-02-27T06:58:52.438Z,12.40
2023-02-27T07:03:55.206Z,10.80
2023-02-27T07:09:06.461Z,12.45
2023-02-27T07:14:10.139Z,11.95
2023-02-27T07:19:12.916Z,12.55
2023-02-27T07:24:15.669Z,9.48
2023-02-27T07:29:18.524Z,11.88
2023-02-27T07:34:21.516Z,10.85
2023-02-27T07:39:24.469Z,11.73
2023-02-27T07:44:27.206Z,11.60
2023-02-27T07:49:30.039Z,10.55
2023-02-27T07:54:35.360Z,9.95
2023-02-27T07:59:38.666Z,13.23
2023-02-27T08:04:44.203Z,10.45
2023-02-27T08:09:46.817Z,13.80
2023-02-27T08:14:49.530Z,13.70
2023-02-27T08:19:52.343Z,8.68
2023-02-27T08:24:55.068Z,10.77
2023-02-27T08:29:57.763Z,9.18
2023-02-27T08:35:00.706Z,10.40
2023-02-27T08:40:05.984Z,9.57
2023-02-27T08:45:10.375Z,9.93
2023-02-27T08:50:13.407Z,10.38
2023-02-27T08:55:16.321Z,13.77
2023-02-27T09:00:19.562Z,11.90
2023-02-27T09:05:23.221Z,13.73
2023-02-27T09:10:25.906Z,11.38
2023-02-27T09:15:28.944Z,11.35
2023-02-27T09:20:36.107Z,11.25
2023-02-27T09:25:38.823Z,10.82
2023-02-27T09:30:41.535Z,14.45
2023-02-27T09:35:44.393Z,10.77
2023-02-27T09:40:48.478Z,11.88
2023-02-27T09:45:54.716Z,9.07
2023-02-27T09:50:58.288Z,12.15
2023-02-27T09:56:11.528Z,13.55
2023-02-27T10:01:37.291Z,10.40
2023-02-27T10:06:45.150Z,9.00
2023-02-27T10:12:14.136Z,12.77
2023-02-27T10:17:37.426Z,10.85
2023-02-27T10:22:44.170Z,14.55
2023-02-27T10:27:50.968Z,11.43
2023-02-27T10:33:14.218Z,14.95
2023-02-27T10:38:31.498Z,14.63
2023-02-27T10:43:34.244Z,16.15
2023-02-27T10:48:37.155Z,16.20
2023-02-27T10:53:39.854Z,12.18
2023-02-27T10:58:42.583Z,14.05
2023-02-27T11:03:45.321Z,14.25
2023-02-27T11:09:13.752Z,15.20
2023-02-27T11:14:26.025Z,15.70
2023-02-27T11:19:37.330Z,14.05
2023-02-27T11:24:40.002Z,14.30
2023-02-27T11:30:05.846Z,13.90
2023-02-27T11:35:23.929Z,13.15
2023-02-27T11:40:40.689Z,15.38
2023-02-27T11:46:11.974Z,15.38
2023-02-27T11:51:28.435Z,18.70
2023-02-27T11:56:42.679Z,20.67
2023-02-27T12:01:54.099Z,19.05
2023-02-27T12:07:19.890Z,19.42
2023-02-27T12:12:26.785Z,19.95
2023-02-27T12:17:51.934Z,23.05
2023-02-27T12:22:57.524Z,25.90
2023-02-27T12:28:09.190Z,25.13
2023-02-27T12:33:20.626Z,20.38
2023-02-27T12:38:24.053Z,17.58
2023-02-27T12:43:41.986Z,16.58
2023-02-27T12:48:47.797Z,12.50
2023-02-27T12:53:52.822Z,17.85
2023-02-27T12:59:23.692Z,14.65
2023-02-27T13:04:46.241Z,16.70
2023-02-27T13:10:14.629Z,16.05
2023-02-27T13:15:28.739Z,19.13
2023-02-27T13:21:14.032Z,18.08
2023-02-27T13:26:24.323Z,16.45
2023-02-27T13:31:39.635Z,17.30
2023-02-27T13:36:54.340Z,14.38
2023-02-27T13:41:57.037Z,16.45
2023-02-27T13:47:40.653Z,18.48
2023-02-27T13:52:43.468Z,17.38
2023-02-27T13:57:48.604Z,20.73
2023-02-27T14:03:00.509Z,18.23
2023-02-27T14:08:12.981Z,21.15
2023-02-27T14:13:54.954Z,21.75
2023-02-27T14:18:59.873Z,23.63
2023-02-27T14:24:04.816Z,22.35
2023-02-27T14:29:17.751Z,23.33
2023-02-27T14:34:22.110Z,20.75
2023-02-27T14:39:31.618Z,25.63
2023-02-27T14:44:44.073Z,23.13
2023-02-27T14:49:47.788Z,17.27
2023-02-27T14:54:52.114Z,23.10
2023-02-27T14:59:55.400Z,30.70
2023-02-27T15:05:06.386Z,29.70
2023-02-27T15:10:20.941Z,23.83
2023-02-27T15:15:23.808Z,21.52
2023-02-27T15:20:34.952Z,28.08
2023-02-27T15:25:39.024Z,19.73
2023-02-27T15:30:42.275Z,22.67
2023-02-27T15:35:46.619Z,21.85
2023-02-27T15:45:53.096Z,20.95
2023-02-27T15:50:59.113Z,29.20
2023-02-27T15:56:09.781Z,22.83
2023-02-27T16:01:23.770Z,24.67
2023-02-27T16:06:35.274Z,23.63
2023-02-27T16:11:38.324Z,22.10
2023-02-27T16:16:41.148Z,22.13
2023-02-27T16:22:23.019Z,18.45
2023-02-27T16:27:28.267Z,18.38
2023-02-27T16:32:37.223Z,23.40
2023-02-27T16:37:41.737Z,25.40
2023-02-27T16:47:49.538Z,20.52
2023-02-27T16:52:52.401Z,21.38
2023-02-27T16:57:55.244Z,23.38
2023-02-27T17:02:57.977Z,23.10
2023-02-27T17:08:00.946Z,17.95
2023-02-27T17:13:03.749Z,20.80
2023-02-27T17:18:08.108Z,19.90
2023-02-27T17:23:14.328Z,20.52
2023-02-27T17:28:17.388Z,22.48
2023-02-27T17:33:20.691Z,20.25
2023-02-27T17:38:23.536Z,18.27
2023-02-27T17:43:27.455Z,17.80
2023-02-27T17:48:30.111Z,20.25
2023-02-27T17:53:33.282Z,18.45
2023-02-27T17:58:36.446Z,18.48
2023-02-27T18:03:39.565Z,17.90
2023-02-27T18:08:42.506Z,17.05
2023-02-27T18:13:45.750Z,18.60
2023-02-27T18:18:48.727Z,18.35
2023-02-27T18:23:53.183Z,17.85
2023-02-27T18:28:57.008Z,17.27
2023-02-27T18:34:00.938Z,18.95
2023-02-27T18:39:05.363Z,20.08
2023-02-27T18:49:10.893Z,20.33
2023-02-27T18:54:14.881Z,14.38
2023-02-27T18:59:17.796Z,16.70
2023-02-27T19:04:20.591Z,17.27
2023-02-27T19:09:23.287Z,17.20
2023-02-27T19:14:26.078Z,15.50
2023-02-27T19:19:29.056Z,14.32
2023-02-27T19:24:31.971Z,15.63
2023-02-27T19:29:34.612Z,15.90
2023-02-27T19:34:37.376Z,15.35
2023-02-27T19:39:40.248Z,13.93
2023-02-27T19:44:43.570Z,15.90
2023-02-27T19:49:46.385Z,12.45
2023-02-27T19:54:49.333Z,15.63
2023-02-27T19:59:52.240Z,14.68
2023-02-27T20:04:55.132Z,11.43
2023-02-27T20:09:58.105Z,13.63
2023-02-27T20:15:08.561Z,11.18
2023-02-27T20:20:11.810Z,9.18
2023-02-27T20:25:14.538Z,12.55
2023-02-27T20:30:17.345Z,8.95
2023-02-27T20:35:20.064Z,9.32
2023-02-27T20:40:22.925Z,9.27
2023-02-27T20:45:26.076Z,10.10
2023-02-27T20:50:28.874Z,9.82
2023-02-27T20:55:31.724Z,9.68
2023-02-27T21:00:34.466Z,13.35
2023-02-27T21:05:37.212Z,8.95
2023-02-27T21:10:40.116Z,9.48
2023-02-27T21:15:42.933Z,12.82
2023-02-27T21:20:45.663Z,9.93
2023-02-27T21:25:48.638Z,8.32
2023-02-27T21:30:54.995Z,9.60
2023-02-27T21:35:57.809Z,7.55
2023-02-27T21:41:06.017Z,5.15
2023-02-27T21:46:11.309Z,4.43
2023-02-27T21:51:13.999Z,5.68
2023-02-27T21:56:16.763Z,7.65
2023-02-27T22:01:23.046Z,12.63
2023-02-27T22:06:27.864Z,6.70
2023-02-27T22:11:31.113Z,8.15
2023-02-27T22:16:34.567Z,5.53
2023-02-27T22:21:38.052Z,6.75
2023-02-27T22:26:41.948Z,8.05
2023-02-27T22:31:45.289Z,5.43
2023-02-27T22:36:49.131Z,6.30
2023-02-27T22:41:51.859Z,12.17
2023-02-27T22:46:56.260Z,5.53
2023-02-27T22:51:59.028Z,6.10
2023-02-27T22:57:01.768Z,5.07
2023-02-27T23:02:04.631Z,8.05
2023-02-27T23:07:07.508Z,11.30
2023-02-27T23:12:10.155Z,7.55
2023-02-27T23:17:12.898Z,7.05
2023-02-27T23:22:15.662Z,6.88
2023-02-27T23:27:25.767Z,7.85
2023-02-27T23:32:29.174Z,6.43
2023-02-27T23:37:31.891Z,7.45
2023-02-27T23:42:34.591Z,6.85
2023-02-27T23:47:46.080Z,5.43
2023-02-27T23:52:50.114Z,9.13
2023-02-27T23:57:53.992Z,6.57
